Flight Track Log - Related Links

Times and Time Zones

All times are in EDT time to prevent confusion due to time zone crossing. See the EJA839 flight status page for this flight to view local times or setup timezone preferences in your user account.

Time Position Orientation Groundspeed Altitude Reporting Facility
EDT Latitude Longitude Course Direction KTS MPH feet Rate Location/Type
Sun 02:53:00 PM 32.9000 -96.9000 320° Northwest 207 238 4,100  Level Dallas TRACON
Sun 02:53:55 PM 32.9500 -96.9000 360° North 246 283 6,700 2,661 Climbing Dallas TRACON
Sun 02:54:55 PM 32.9333 -96.8167 103° East 287 330 9,200 2,672 Climbing Dallas TRACON
Sun 02:55:54 PM 32.9167 -96.7167 101° East 302 348 12,000 2,494 Climbing Dallas TRACON
Sun 02:57:41 PM 32.8950 -96.5328 98° East 327 376 16,100 1,796 Climbing Fort Center
Sun 02:58:41 PM 32.8797 -96.4314 100° East 338 389 17,000 500 Climbing Fort Center
Sun 02:59:41 PM 32.8661 -96.2931 97° East 371 427 17,100 50 Climbing Fort Center
Sun 03:00:41 PM 32.8692 -96.1767 88° East 379 436 17,100  Level Fort Center
Sun 03:01:41 PM 32.8717 -96.0356 89° East 384 442 17,100 -50 Level Fort Center
Sun 03:02:41 PM 32.8622 -95.9197 96° East 384 442 17,000  Descending Fort Center
Sun 03:03:41 PM 32.8353 -95.7842 103° East 384 442 17,100 50 Climbing Fort Center
Sun 03:04:41 PM 32.8150 -95.6683 102° East 391 450 17,100 -50 Level Fort Center
Sun 03:05:41 PM 32.7881 -95.5303 103° East 391 450 17,000 -50 Descending Fort Center
Sun 03:06:41 PM 32.7611 -95.4050 104° East 391 450 17,000  Level Fort Center
Sun 03:07:41 PM 32.7447 -95.3067 101° East 391 450 17,000  Level Fort Center
Sun 03:08:41 PM 32.7153 -95.1664 104° East 391 450 17,000  Level Fort Center
Sun 03:09:41 PM 32.6922 -95.0461 103° East 385 443 17,000 -50 Level Fort Center
Sun 03:10:41 PM 32.6669 -94.9283 104° East 371 427 16,900 -750 Descending Fort Center
Sun 03:11:41 PM 32.6458 -94.8156 103° East 366 421 15,500 -1,400 Descending Fort Center
Sun 03:12:41 PM 32.6225 -94.7003 103° East 361 415 14,100 -1,250 Descending Fort Center
Sun 03:13:41 PM 32.6033 -94.5872 101° East 347 399 13,000 -569 Descending Fort Center
Sun 03:14:37 PM 32.5778 -94.4747 105° East 345 397 13,000  Level Fort Center
Sun 03:14:41 PM 32.5775 -94.4650 92° East 347 399 13,000 -1,279 Level Fort Center
Sun 03:15:38 PM 32.5544 -94.3669 106° East 336 387 11,700 -1,300 Descending Fort Center
Sun 03:15:41 PM 32.5586 -94.3694 333° Northwest 340 391 11,700 -900 Level Fort Center
Sun 03:16:38 PM 32.5353 -94.2642 105° East 324 373 10,800 -1,000 Descending Fort Center
Sun 03:16:41 PM 32.5350 -94.2569 93° East 328 377 10,700 -1,770 Descending Fort Center
Sun 03:17:39 PM 32.5286 -94.1683 95° East 284 327 9,000 -1,700 Descending Fort Center
Sun 03:17:41 PM 32.5308 -94.1708 317° Northwest 304 350 9,000 -2,459 Level Fort Center
Sun 03:18:40 PM 32.5325 -94.0794 89° East 266 306 6,500 -2,700 Descending Fort Center
Sun 03:18:41 PM 32.5344 -94.0719 73° East 274 315 6,300 -2,459 Descending Fort Center
Sun 03:19:41 PM 32.5575 -94.0047 68° East 247 284 4,000 -2,050 Descending Fort Center
Sun 03:20:41 PM 32.5619 -93.9331 86° East 200 230 2,200 -1,250 Descending Fort Center
Sun 03:21:41 PM 32.5278 -93.9022 143° Southeast 161 185 1,500 -689 Descending Fort Center
Sun 03:21:42 PM 32.5214 -93.9000 164° South 163 188 1,500 -100 Level Fort Center
Sun 03:22:41 PM 32.4956 -93.8739 140° Southeast 140 161 1,400 -100 Descending Fort Center
Sun 03:22:42 PM 32.4936 -93.8742 187° South 123 142 1,400 -700 Level Fort Center
Sun 03:23:41 PM 32.4719 -93.8478 134° Southeast 129 148 700 -689 Descending Fort Center
Sun 03:23:43 PM 32.4656 -93.8506 200° South 124 143 700 900 Level Fort Center
Sun 03:24:41 PM 32.4375 -93.8172 135° Southeast 134 154 1,600 885 Climbing Fort Center
Sun 03:24:44 PM 32.4336 -93.8197 208° Southwest 166 191 1,600 700 Level Fort Center
Sun 03:25:41 PM 32.3947 -93.7819 141° Southeast 183 211 2,300 900 Climbing Fort Center
Sun 03:25:44 PM 32.3947 -93.7747 90° East 222 255 2,500 800 Climbing Fort Center
Sun 03:26:41 PM 32.4333 -93.7411 36° Northeast 132 152 3,100 590 Climbing Fort Center
Sun 03:26:45 PM 32.4333 -93.7461 270° West 211 243 3,100  Level Fort Center
Sun 03:27:41 PM 32.4639 -93.7867 312° West 138 159 3,100  Level Fort Center
Sun 03:27:45 PM 32.4664 -93.7989 284° West 187 215 3,100  Level Fort Center
Sun 03:28:46 PM 32.5092 -93.8389 322° Northwest 202 232 3,100  Level Fort Center
Sun 03:29:47 PM 32.5522 -93.8842 318° Northwest 214 246 3,100  Level Fort Center
Sun 03:30:47 PM 32.5994 -93.9292 321° Northwest 212 244 3,100 -496 Level Fort Center
Sun 03:31:48 PM 32.5686 -93.9525 213° Southwest 180 207 2,100 -787 Descending Fort Center
Sun 03:32:49 PM 32.5364 -93.9119 133° Southeast 154 177 1,500 -298 Descending Fort Center
Sun 03:33:49 PM 32.5064 -93.8858 144° Southeast 120 138 1,500 -397 Level Fort Center
Sun 03:34:50 PM 32.4786 -93.8625 145° Southeast 127 146 700 -787 Descending Fort Center

Login

Don't have an account? Register now (free) for customized features, flight alerts, and more!